Crumlin, United Kingdom
Current Conditions -  °F | °C
As of 2:50 PM on Wednesday 22 Oct 2014 (Local Time) from EGAA Reporting Station
Broken Clouds Broken Clouds  
Wind Chill: 12°   Ceiling: 1600
Heat Index: 12°   Visibility: 6mi
Dew Point:   Wind: 12mph
Humidity: 82%   Direction: 220°SW
Pressure: 30.09"   Gusts: NA
Location:  54.62°N, 6.22°W
Report Text: EGAA 221350Z 22010KT 190V250 9999 BKN016 BKN022 12/09 Q1019
Loading
Personal Weather Stations






























Interactive Weather Map
Tropical Storm Tracking
New forecast layout! Learn more

10-Day Weather Forecast

Advertisements
Track Severe Weather on mobile